createdAt,value
2018-06-09T00:00:57.565Z,41.05
2018-06-09T00:03:24.222Z,40.83
2018-06-09T00:05:50.946Z,40.55
2018-06-09T00:08:17.697Z,40.40
2018-06-09T00:10:44.378Z,40.29
2018-06-09T00:13:17.875Z,40.36
2018-06-09T00:15:44.553Z,40.20
2018-06-09T00:18:11.250Z,39.94
2018-06-09T00:20:37.937Z,39.95
2018-06-09T00:23:04.620Z,40.01
2018-06-09T00:25:31.313Z,39.74
2018-06-09T00:27:57.999Z,41.27
2018-06-09T00:30:24.683Z,41.91
2018-06-09T00:32:51.383Z,42.17
2018-06-09T00:35:18.114Z,42.58
2018-06-09T00:37:44.805Z,42.90
2018-06-09T00:40:11.505Z,41.85
2018-06-09T00:42:38.229Z,41.81
2018-06-09T00:45:04.952Z,41.67
2018-06-09T00:47:35.008Z,41.43
2018-06-09T00:50:01.731Z,41.35
2018-06-09T00:52:28.423Z,41.24
2018-06-09T00:54:55.115Z,41.06
2018-06-09T00:57:21.792Z,40.79
2018-06-09T00:59:48.491Z,40.63
2018-06-09T01:02:15.178Z,40.66
2018-06-09T01:04:41.867Z,40.47
2018-06-09T01:07:09.635Z,40.36
2018-06-09T01:09:35.357Z,41.80
2018-06-09T01:12:02.037Z,42.46
2018-06-09T01:14:28.749Z,42.53
2018-06-09T01:16:55.445Z,43.18
2018-06-09T01:19:22.123Z,43.63
2018-06-09T01:21:51.516Z,43.81
2018-06-09T01:24:18.205Z,43.81
2018-06-09T01:26:44.899Z,43.99
2018-06-09T01:29:11.733Z,44.14
2018-06-09T01:31:38.439Z,44.28
2018-06-09T01:34:05.131Z,44.34
2018-06-09T01:36:31.862Z,44.53
2018-06-09T01:38:58.565Z,44.60
2018-06-09T01:41:25.277Z,44.68
2018-06-09T01:43:51.925Z,44.72
2018-06-09T01:46:18.652Z,44.88
2018-06-09T01:48:45.324Z,44.91
2018-06-09T01:51:12.069Z,45.04
2018-06-09T01:53:38.752Z,45.13
2018-06-09T01:56:05.435Z,45.24
2018-06-09T01:58:32.115Z,45.20
2018-06-09T02:00:59.639Z,45.28
2018-06-09T02:03:26.316Z,45.32
2018-06-09T02:05:53.037Z,45.49
2018-06-09T02:08:19.774Z,45.49
2018-06-09T02:10:46.505Z,45.61
2018-06-09T02:13:13.193Z,45.62
2018-06-09T02:15:39.925Z,45.64
2018-06-09T02:18:06.649Z,45.73
2018-06-09T02:20:33.362Z,45.69
2018-06-09T02:23:00.010Z,45.79
2018-06-09T02:25:26.747Z,45.80
2018-06-09T02:27:53.427Z,45.81
2018-06-09T02:30:20.160Z,45.88
2018-06-09T02:32:46.838Z,46.00
2018-06-09T02:35:13.529Z,45.97
2018-06-09T02:37:40.201Z,46.05
2018-06-09T02:40:06.966Z,46.04
2018-06-09T02:42:33.615Z,45.98
2018-06-09T02:45:00.296Z,46.21
2018-06-09T02:47:26.996Z,46.07
2018-06-09T02:49:55.550Z,46.07
2018-06-09T02:52:20.357Z,46.17
2018-06-09T02:54:47.090Z,45.95
2018-06-09T02:57:13.763Z,46.14
2018-06-09T02:59:40.461Z,46.08
2018-06-09T03:02:07.144Z,45.94
2018-06-09T03:04:33.829Z,46.18
2018-06-09T03:07:00.510Z,46.16
2018-06-09T03:09:27.206Z,46.20
2018-06-09T03:11:53.887Z,46.28
2018-06-09T03:14:20.561Z,46.23
2018-06-09T03:16:47.259Z,46.33
2018-06-09T03:19:13.960Z,46.24
2018-06-09T03:21:40.676Z,46.27
2018-06-09T03:24:07.326Z,46.37
2018-06-09T03:26:34.021Z,46.30
2018-06-09T03:29:00.704Z,46.36
2018-06-09T03:31:27.439Z,46.22
2018-06-09T03:33:54.147Z,46.21
2018-06-09T03:36:20.855Z,46.22
2018-06-09T03:38:47.544Z,46.32
2018-06-09T03:41:14.232Z,46.25
2018-06-09T03:43:40.919Z,46.36
2018-06-09T03:46:07.600Z,46.46
2018-06-09T03:48:34.284Z,46.42
2018-06-09T03:51:00.975Z,46.45
2018-06-09T03:53:27.772Z,46.42
2018-06-09T03:55:54.429Z,46.29
2018-06-09T03:58:21.120Z,46.29
2018-06-09T04:00:47.892Z,46.25
2018-06-09T04:03:14.575Z,46.38
2018-06-09T04:05:41.314Z,46.48
2018-06-09T04:08:08.183Z,46.25
2018-06-09T04:10:34.875Z,46.33
2018-06-09T04:13:01.559Z,46.49
2018-06-09T04:15:28.381Z,46.53
2018-06-09T04:17:55.103Z,46.39
2018-06-09T04:20:21.784Z,46.49
2018-06-09T04:22:48.556Z,46.39
2018-06-09T04:25:15.315Z,46.46
2018-06-09T04:27:41.984Z,46.53
2018-06-09T04:30:08.725Z,46.54
2018-06-09T04:32:35.457Z,46.63
2018-06-09T04:35:02.142Z,46.46
2018-06-09T04:37:28.977Z,46.54
2018-06-09T04:39:55.692Z,46.68
2018-06-09T04:42:22.328Z,46.73
2018-06-09T04:44:49.053Z,46.75
2018-06-09T04:47:15.693Z,46.83
2018-06-09T04:49:42.384Z,46.71
2018-06-09T04:52:09.135Z,46.95
2018-06-09T04:54:35.752Z,46.86
2018-06-09T04:57:02.445Z,46.79
2018-06-09T04:59:29.133Z,46.82
2018-06-09T05:01:55.829Z,46.80
2018-06-09T05:04:22.517Z,46.83
2018-06-09T05:06:49.202Z,46.68
2018-06-09T05:09:15.932Z,46.49
2018-06-09T05:11:42.612Z,46.60
2018-06-09T05:14:09.290Z,46.73
2018-06-09T05:16:36.062Z,46.48
2018-06-09T05:19:02.715Z,46.66
2018-06-09T05:21:29.388Z,46.65
2018-06-09T05:23:56.110Z,46.23
2018-06-09T05:26:22.802Z,45.79
2018-06-09T05:28:49.485Z,45.48
2018-06-09T05:31:16.169Z,45.34
2018-06-09T05:33:42.892Z,45.19
2018-06-09T05:36:09.605Z,44.80
2018-06-09T05:38:36.297Z,44.49
2018-06-09T05:41:03.019Z,44.37
2018-06-09T05:43:29.681Z,44.08
2018-06-09T05:45:56.359Z,43.67
2018-06-09T05:48:23.046Z,43.71
2018-06-09T05:50:49.829Z,43.35
2018-06-09T05:53:16.496Z,43.29
2018-06-09T05:55:43.181Z,42.74
2018-06-09T05:58:09.900Z,42.75
2018-06-09T06:00:36.580Z,42.45
2018-06-09T06:03:03.330Z,42.34
2018-06-09T06:05:29.966Z,41.70
2018-06-09T06:07:56.731Z,41.73
2018-06-09T06:10:23.393Z,41.46
2018-06-09T06:12:50.071Z,41.51
2018-06-09T06:15:16.801Z,41.21
2018-06-09T06:17:43.480Z,41.15
2018-06-09T06:20:10.186Z,41.25
2018-06-09T06:22:36.903Z,41.30
2018-06-09T06:25:03.622Z,41.12
2018-06-09T06:27:30.336Z,41.13
2018-06-09T06:29:56.982Z,41.13
2018-06-09T06:32:23.932Z,40.83
2018-06-09T06:34:50.617Z,40.77
2018-06-09T06:37:17.231Z,40.90
2018-06-09T06:39:43.904Z,40.41
2018-06-09T06:42:10.588Z,40.72
2018-06-09T06:44:37.259Z,40.73
2018-06-09T06:47:03.961Z,40.64
2018-06-09T06:49:30.604Z,40.54
2018-06-09T06:51:57.256Z,40.55
2018-06-09T06:54:23.941Z,40.33
2018-06-09T06:56:50.560Z,40.60
2018-06-09T06:59:17.276Z,40.32
2018-06-09T07:01:43.973Z,40.20
2018-06-09T07:04:10.618Z,40.36
2018-06-09T07:06:37.276Z,40.09
2018-06-09T07:09:03.936Z,40.35
2018-06-09T07:11:30.595Z,40.19
2018-06-09T07:13:57.296Z,40.28
2018-06-09T07:16:23.970Z,40.07
2018-06-09T07:18:50.634Z,40.24
2018-06-09T07:21:17.282Z,40.00
2018-06-09T07:23:43.988Z,39.91
2018-06-09T07:26:10.593Z,40.25
2018-06-09T07:28:37.253Z,40.90
2018-06-09T07:31:05.322Z,40.60
2018-06-09T07:33:30.679Z,40.87
2018-06-09T07:35:57.328Z,40.96
2018-06-09T07:38:24.013Z,40.69
2018-06-09T07:40:50.649Z,40.56
2018-06-09T07:43:17.313Z,40.16
2018-06-09T07:45:44.005Z,40.30
2018-06-09T07:48:10.649Z,39.94
2018-06-09T07:50:37.340Z,39.90
2018-06-09T07:53:03.956Z,40.19
2018-06-09T07:55:30.693Z,40.38
2018-06-09T07:57:57.397Z,40.86
2018-06-09T08:00:24.027Z,40.57
2018-06-09T08:02:51.075Z,40.24
2018-06-09T08:05:17.755Z,40.16
2018-06-09T08:07:44.385Z,39.77
2018-06-09T08:10:11.083Z,40.48
2018-06-09T08:12:37.779Z,40.48
2018-06-09T08:15:05.564Z,40.58
2018-06-09T08:17:32.221Z,41.04
2018-06-09T08:19:58.867Z,40.81
2018-06-09T08:22:25.607Z,40.38
2018-06-09T08:24:52.215Z,40.12
2018-06-09T08:27:18.907Z,40.02
2018-06-09T08:29:45.572Z,39.70
2018-06-09T08:32:12.318Z,39.74
2018-06-09T08:34:38.928Z,39.55
2018-06-09T08:37:05.619Z,39.63
2018-06-09T08:39:32.273Z,39.72
2018-06-09T08:41:58.944Z,40.48
2018-06-09T08:44:25.592Z,40.27
2018-06-09T08:46:52.273Z,40.54
2018-06-09T08:49:18.887Z,41.00
2018-06-09T08:51:45.623Z,40.66
2018-06-09T08:54:12.252Z,40.24
2018-06-09T08:56:38.990Z,40.00
2018-06-09T08:59:05.636Z,39.88
2018-06-09T09:01:32.254Z,39.88
2018-06-09T09:03:58.912Z,39.79
2018-06-09T09:06:25.600Z,39.63
2018-06-09T09:08:52.288Z,39.46
2018-06-09T09:11:18.951Z,39.41
2018-06-09T09:13:45.660Z,39.27
2018-06-09T09:16:12.310Z,39.44
2018-06-09T09:18:38.970Z,39.19
2018-06-09T09:21:05.653Z,39.30
2018-06-09T09:23:32.301Z,39.07
2018-06-09T09:25:58.960Z,39.13
2018-06-09T09:28:25.622Z,39.04
2018-06-09T09:30:52.266Z,39.05
2018-06-09T09:33:18.968Z,39.09
2018-06-09T09:35:45.650Z,39.09
2018-06-09T09:38:12.272Z,39.05
2018-06-09T09:40:38.989Z,38.90
2018-06-09T09:43:05.622Z,39.01
2018-06-09T09:45:32.317Z,38.96
2018-06-09T09:47:59.031Z,38.82
2018-06-09T09:50:25.659Z,38.96
2018-06-09T09:52:52.312Z,38.71
2018-06-09T09:55:19.042Z,38.87
2018-06-09T09:57:45.724Z,38.76
2018-06-09T10:00:12.367Z,38.78
2018-06-09T10:02:39.056Z,38.96
2018-06-09T10:05:05.679Z,38.63
2018-06-09T10:07:32.373Z,38.75
2018-06-09T10:09:59.019Z,38.57
2018-06-09T10:12:25.708Z,38.81
2018-06-09T10:14:52.310Z,38.48
2018-06-09T10:17:19.027Z,38.47
2018-06-09T10:19:45.677Z,38.54
2018-06-09T10:22:12.363Z,38.45
2018-06-09T10:24:39.016Z,38.54
2018-06-09T10:27:05.718Z,38.53
2018-06-09T10:29:32.338Z,38.59
2018-06-09T10:31:58.987Z,38.36
2018-06-09T10:34:25.664Z,38.44
2018-06-09T10:36:52.304Z,38.20
2018-06-09T10:39:18.970Z,38.38
2018-06-09T10:41:45.631Z,38.15
2018-06-09T10:44:12.358Z,38.30
2018-06-09T10:46:39.028Z,38.14
2018-06-09T10:49:05.668Z,38.16
2018-06-09T10:51:32.406Z,38.03
2018-06-09T10:53:59.065Z,38.06
2018-06-09T10:56:25.712Z,37.98
2018-06-09T10:58:52.419Z,37.97
2018-06-09T11:01:19.092Z,37.92
2018-06-09T11:03:45.707Z,37.89
2018-06-09T11:06:12.396Z,37.91
2018-06-09T11:08:39.055Z,37.61
2018-06-09T11:11:05.710Z,37.79
2018-06-09T11:13:32.353Z,37.75
2018-06-09T11:15:59.009Z,37.73
2018-06-09T11:18:25.708Z,37.69
2018-06-09T11:20:52.343Z,37.50
2018-06-09T11:23:19.052Z,38.21
2018-06-09T11:25:45.770Z,38.74
2018-06-09T11:28:12.441Z,39.64
2018-06-09T11:30:39.079Z,40.44
2018-06-09T11:33:05.736Z,39.75
2018-06-09T11:35:32.469Z,39.24
2018-06-09T11:37:59.159Z,39.15
2018-06-09T11:40:25.858Z,38.95
2018-06-09T11:42:52.483Z,38.79
2018-06-09T11:45:19.215Z,38.78
2018-06-09T11:47:45.902Z,38.47
2018-06-09T11:50:12.596Z,38.64
2018-06-09T11:52:39.241Z,38.59
2018-06-09T11:55:05.998Z,38.40
2018-06-09T11:57:32.650Z,38.61
2018-06-09T11:59:59.309Z,38.48
2018-06-09T12:02:26.018Z,38.50
2018-06-09T12:04:52.711Z,38.50
2018-06-09T12:07:19.371Z,38.50
2018-06-09T12:09:46.015Z,38.45
2018-06-09T12:12:12.726Z,38.57
2018-06-09T12:14:39.413Z,38.41
2018-06-09T12:17:06.159Z,38.38
2018-06-09T12:19:32.816Z,38.80
2018-06-09T12:21:59.541Z,38.76
2018-06-09T12:24:26.204Z,38.90
2018-06-09T12:26:52.931Z,38.98
2018-06-09T12:29:19.602Z,39.12
2018-06-09T12:31:46.245Z,39.29
2018-06-09T12:34:12.906Z,39.57
2018-06-09T12:36:39.563Z,39.63
2018-06-09T12:39:06.262Z,40.62
2018-06-09T12:41:32.919Z,41.36
2018-06-09T12:43:59.645Z,41.24
2018-06-09T12:46:26.274Z,41.01
2018-06-09T12:48:52.981Z,41.02
2018-06-09T12:51:19.631Z,41.07
2018-06-09T12:53:46.268Z,41.05
2018-06-09T12:56:12.929Z,41.03
2018-06-09T12:58:39.627Z,40.94
2018-06-09T13:01:06.263Z,40.95
2018-06-09T13:03:32.926Z,40.96
2018-06-09T13:05:59.627Z,40.99
2018-06-09T13:08:26.287Z,41.10
2018-06-09T13:10:52.934Z,41.02
2018-06-09T13:13:19.608Z,41.34
2018-06-09T13:15:46.253Z,40.98
2018-06-09T13:18:12.984Z,41.05
2018-06-09T13:20:39.647Z,41.17
2018-06-09T13:23:06.295Z,41.24
2018-06-09T13:25:32.949Z,41.18
2018-06-09T13:27:59.646Z,40.92
2018-06-09T13:30:26.387Z,41.09
2018-06-09T13:32:53.084Z,41.42
2018-06-09T13:35:19.791Z,41.17
2018-06-09T13:37:46.424Z,41.29
2018-06-09T13:40:13.233Z,41.75
2018-06-09T13:42:39.739Z,41.57
2018-06-09T13:45:06.423Z,41.69
2018-06-09T13:47:33.063Z,41.72
2018-06-09T13:49:59.725Z,41.81
2018-06-09T13:52:26.379Z,41.99
2018-06-09T13:54:53.048Z,41.80
2018-06-09T13:57:19.745Z,41.85
2018-06-09T13:59:46.389Z,42.05
2018-06-09T14:02:13.077Z,41.97
2018-06-09T14:04:39.727Z,41.91
2018-06-09T14:07:06.418Z,41.92
2018-06-09T14:09:33.064Z,42.12
2018-06-09T14:11:59.770Z,44.10
2018-06-09T14:14:26.417Z,44.61
2018-06-09T14:16:53.105Z,45.14
2018-06-09T14:19:19.749Z,44.89
2018-06-09T14:21:46.443Z,45.30
2018-06-09T14:24:13.128Z,46.38
2018-06-09T14:26:39.800Z,45.37
2018-06-09T14:29:06.458Z,45.03
2018-06-09T14:31:33.136Z,44.75
2018-06-09T14:33:59.789Z,44.74
2018-06-09T14:36:26.467Z,44.66
2018-06-09T14:38:53.149Z,44.46
2018-06-09T14:41:19.767Z,44.54
2018-06-09T14:43:46.423Z,44.17
2018-06-09T14:46:13.105Z,43.87
2018-06-09T14:48:39.784Z,43.82
2018-06-09T14:51:06.396Z,43.85
2018-06-09T14:53:33.095Z,43.59
2018-06-09T14:55:59.755Z,43.47
2018-06-09T14:58:26.486Z,43.59
2018-06-09T15:00:53.131Z,43.43
2018-06-09T15:03:19.739Z,43.31
2018-06-09T15:05:46.448Z,43.24
2018-06-09T15:08:13.121Z,43.12
2018-06-09T15:10:39.738Z,43.08
2018-06-09T15:13:06.473Z,42.92
2018-06-09T15:15:33.166Z,42.81
2018-06-09T15:17:59.775Z,42.91
2018-06-09T15:20:26.470Z,42.55
2018-06-09T15:22:53.178Z,42.60
2018-06-09T15:25:19.859Z,42.38
2018-06-09T15:27:46.509Z,42.28
2018-06-09T15:30:13.147Z,42.23
2018-06-09T15:32:39.810Z,42.20
2018-06-09T15:35:06.510Z,42.22
2018-06-09T15:37:33.155Z,42.04
2018-06-09T15:39:59.777Z,42.89
2018-06-09T15:42:26.434Z,43.89
2018-06-09T15:44:53.125Z,44.54
2018-06-09T15:47:19.771Z,44.67
2018-06-09T15:49:46.392Z,44.77
2018-06-09T15:52:13.077Z,44.13
2018-06-09T15:54:39.697Z,44.22
2018-06-09T15:57:06.348Z,43.91
2018-06-09T15:59:33.113Z,43.62
2018-06-09T16:01:59.743Z,43.47
2018-06-09T16:04:26.395Z,43.19
2018-06-09T16:06:53.059Z,42.96
2018-06-09T16:09:19.703Z,42.97
2018-06-09T16:11:46.355Z,42.75
2018-06-09T16:14:13.038Z,42.60
2018-06-09T16:16:39.653Z,42.50
2018-06-09T16:19:06.307Z,42.17
2018-06-09T16:21:32.964Z,42.06
2018-06-09T16:23:59.614Z,42.01
2018-06-09T16:26:26.274Z,41.75
2018-06-09T16:28:52.939Z,41.65
2018-06-09T16:31:19.623Z,41.54
2018-06-09T16:33:46.244Z,41.44
2018-06-09T16:36:12.895Z,41.36
2018-06-09T16:38:39.558Z,41.14
2018-06-09T16:41:06.195Z,41.51
2018-06-09T16:43:32.859Z,42.62
2018-06-09T16:45:59.504Z,43.61
2018-06-09T16:48:26.166Z,44.12
2018-06-09T16:50:52.835Z,44.11
2018-06-09T16:53:19.480Z,43.73
2018-06-09T16:55:46.219Z,43.16
2018-06-09T16:58:12.992Z,43.15
2018-06-09T17:00:39.617Z,43.26
2018-06-09T17:03:06.268Z,43.04
2018-06-09T17:05:32.923Z,42.92
2018-06-09T17:07:59.613Z,42.80
2018-06-09T17:10:26.249Z,42.72
2018-06-09T17:12:52.889Z,42.47
2018-06-09T17:15:19.531Z,42.52
2018-06-09T17:17:46.181Z,42.20
2018-06-09T17:20:12.839Z,42.28
2018-06-09T17:22:39.558Z,42.10
2018-06-09T17:25:06.147Z,42.04
2018-06-09T17:27:32.791Z,41.94
2018-06-09T17:29:59.454Z,41.92
2018-06-09T17:32:26.136Z,41.96
2018-06-09T17:34:52.792Z,41.86
2018-06-09T17:37:19.474Z,41.82
2018-06-09T17:39:46.079Z,41.85
2018-06-09T17:42:12.760Z,41.84
2018-06-09T17:44:39.388Z,43.03
2018-06-09T17:47:06.063Z,43.81
2018-06-09T17:49:32.685Z,44.13
2018-06-09T17:51:59.427Z,44.42
2018-06-09T17:54:26.083Z,45.31
2018-06-09T17:56:52.705Z,44.03
2018-06-09T17:59:19.375Z,44.06
2018-06-09T18:01:46.014Z,43.92
2018-06-09T18:04:12.659Z,43.56
2018-06-09T18:06:39.318Z,43.62
2018-06-09T18:09:05.976Z,43.36
2018-06-09T18:11:32.661Z,43.21
2018-06-09T18:13:59.282Z,43.00
2018-06-09T18:16:25.968Z,43.02
2018-06-09T18:18:52.622Z,42.92
2018-06-09T18:21:19.278Z,42.73
2018-06-09T18:23:45.896Z,42.68
2018-06-09T18:26:12.562Z,42.67
2018-06-09T18:28:39.294Z,42.45
2018-06-09T18:31:05.955Z,42.32
2018-06-09T18:33:32.606Z,42.29
2018-06-09T18:35:59.249Z,42.38
2018-06-09T18:38:25.916Z,42.78
2018-06-09T18:40:52.563Z,43.89
2018-06-09T18:43:19.208Z,44.57
2018-06-09T18:45:45.897Z,45.12
2018-06-09T18:48:12.545Z,45.38
2018-06-09T18:50:39.179Z,45.09
2018-06-09T18:53:05.819Z,44.65
2018-06-09T18:55:32.510Z,44.51
2018-06-09T18:57:59.204Z,44.42
2018-06-09T19:00:25.819Z,44.40
2018-06-09T19:02:52.479Z,44.23
2018-06-09T19:05:22.275Z,44.07
2018-06-09T19:07:48.944Z,44.10
2018-06-09T19:10:15.596Z,43.79
2018-06-09T19:12:42.281Z,43.61
2018-06-09T19:15:08.895Z,43.63
2018-06-09T19:17:35.554Z,45.21
2018-06-09T19:20:02.279Z,45.63
2018-06-09T19:22:28.904Z,46.21
2018-06-09T19:24:55.552Z,46.43
2018-06-09T19:27:22.236Z,46.67
2018-06-09T19:29:48.931Z,47.04
2018-06-09T19:32:15.582Z,47.42
2018-06-09T19:34:42.224Z,47.68
2018-06-09T19:37:08.958Z,47.92
2018-06-09T19:39:35.617Z,48.32
2018-06-09T19:42:02.232Z,48.49
2018-06-09T19:44:28.925Z,48.54
2018-06-09T19:46:55.641Z,48.65
2018-06-09T19:49:22.263Z,48.95
2018-06-09T19:51:48.933Z,49.07
2018-06-09T19:54:15.587Z,49.02
2018-06-09T19:56:42.244Z,49.37
2018-06-09T19:59:08.894Z,49.51
2018-06-09T20:01:35.553Z,49.55
2018-06-09T20:04:02.238Z,49.83
2018-06-09T20:06:28.898Z,49.64
2018-06-09T20:08:55.562Z,49.87
2018-06-09T20:11:22.171Z,49.93
2018-06-09T20:13:48.853Z,50.16
2018-06-09T20:16:15.513Z,50.07
2018-06-09T20:18:42.181Z,50.24
2018-06-09T20:21:08.833Z,50.28
2018-06-09T20:23:35.475Z,50.24
2018-06-09T20:26:02.166Z,50.54
2018-06-09T20:28:28.854Z,50.54
2018-06-09T20:30:55.501Z,50.42
2018-06-09T20:33:22.182Z,50.71
2018-06-09T20:35:48.871Z,50.90
2018-06-09T20:38:15.483Z,50.83
2018-06-09T20:40:42.147Z,50.96
2018-06-09T20:43:08.911Z,50.84
2018-06-09T20:45:35.496Z,50.86
2018-06-09T20:48:02.145Z,50.95
2018-06-09T20:50:28.838Z,51.03
2018-06-09T20:52:55.487Z,51.07
2018-06-09T20:55:22.171Z,51.14
2018-06-09T20:57:48.820Z,51.21
2018-06-09T21:00:15.511Z,51.24
2018-06-09T21:02:42.126Z,51.12
2018-06-09T21:05:08.832Z,51.26
2018-06-09T21:07:35.480Z,51.30
2018-06-09T21:10:02.122Z,51.38
2018-06-09T21:12:28.817Z,51.34
2018-06-09T21:14:55.437Z,51.39
2018-06-09T21:17:22.093Z,51.39
2018-06-09T21:19:48.782Z,51.39
2018-06-09T21:22:15.403Z,51.47
2018-06-09T21:24:42.056Z,51.42
2018-06-09T21:27:08.756Z,51.33
2018-06-09T21:29:35.403Z,51.46
2018-06-09T21:32:02.048Z,51.47
2018-06-09T21:34:28.718Z,51.56
2018-06-09T21:36:55.494Z,51.57
2018-06-09T21:39:22.129Z,51.56
2018-06-09T21:41:48.819Z,51.59
2018-06-09T21:44:15.475Z,51.61
2018-06-09T21:46:42.129Z,51.54
2018-06-09T21:49:08.821Z,51.52
2018-06-09T21:51:35.451Z,51.59
2018-06-09T21:54:02.265Z,51.69
2018-06-09T21:56:28.945Z,51.66
2018-06-09T21:58:55.575Z,51.58
2018-06-09T22:01:22.268Z,51.68
2018-06-09T22:03:48.920Z,51.65
2018-06-09T22:06:15.581Z,51.60
2018-06-09T22:08:42.245Z,51.83
2018-06-09T22:11:08.936Z,51.77
2018-06-09T22:13:35.677Z,51.85
2018-06-09T22:16:02.247Z,51.87
2018-06-09T22:18:28.903Z,52.01
2018-06-09T22:20:55.556Z,52.01
2018-06-09T22:23:22.231Z,51.87
2018-06-09T22:25:48.852Z,51.98
2018-06-09T22:28:15.523Z,52.11
2018-06-09T22:30:42.178Z,52.01
2018-06-09T22:33:08.848Z,51.88
2018-06-09T22:35:35.495Z,51.82
2018-06-09T22:38:02.152Z,51.95
2018-06-09T22:40:28.838Z,51.96
2018-06-09T22:42:55.479Z,52.04
2018-06-09T22:45:22.133Z,52.01
2018-06-09T22:47:48.784Z,52.02
2018-06-09T22:50:15.567Z,51.95
2018-06-09T22:52:42.222Z,51.93
2018-06-09T22:55:08.881Z,51.97
2018-06-09T22:57:35.560Z,51.90
2018-06-09T23:00:02.211Z,51.80
2018-06-09T23:02:28.841Z,51.87
2018-06-09T23:04:55.495Z,51.96
2018-06-09T23:07:22.205Z,51.95
2018-06-09T23:09:48.868Z,52.02
2018-06-09T23:12:15.526Z,51.97
2018-06-09T23:14:42.188Z,52.06
2018-06-09T23:17:08.834Z,51.95
2018-06-09T23:19:35.596Z,51.79
2018-06-09T23:22:02.246Z,52.06
2018-06-09T23:24:28.939Z,52.03
2018-06-09T23:26:55.543Z,52.00
2018-06-09T23:29:22.273Z,52.08
2018-06-09T23:31:48.891Z,51.94
2018-06-09T23:34:15.608Z,51.98
2018-06-09T23:36:42.264Z,51.88
2018-06-09T23:39:08.946Z,52.05
2018-06-09T23:41:35.611Z,52.04
2018-06-09T23:44:02.345Z,52.00
2018-06-09T23:46:28.951Z,52.00
2018-06-09T23:48:55.608Z,52.05
2018-06-09T23:51:22.264Z,51.86
2018-06-09T23:53:48.904Z,51.94
2018-06-09T23:56:15.617Z,52.02
2018-06-09T23:58:42.274Z,51.94
